createdAt,value
2023-02-26T00:00:16.114Z,-0.17
2023-02-26T00:05:39.074Z,-0.19
2023-02-26T00:11:02.486Z,-0.06
2023-02-26T00:16:28.294Z,0.06
2023-02-26T00:21:50.906Z,-0.09
2023-02-26T00:27:13.624Z,0.04
2023-02-26T00:32:40.157Z,-0.13
2023-02-26T00:38:04.488Z,0.14
2023-02-26T00:43:32.604Z,0.08
2023-02-26T00:49:08.337Z,0.08
2023-02-26T00:54:32.313Z,0.09
2023-02-26T00:59:56.077Z,-0.03
2023-02-26T01:05:19.698Z,0.21
2023-02-26T01:10:44.422Z,0.02
2023-02-26T01:16:13.134Z,0.06
2023-02-26T01:21:44.999Z,0.19
2023-02-26T01:27:07.405Z,0.13
2023-02-26T01:33:11.018Z,0.30
2023-02-26T01:38:40.790Z,0.20
2023-02-26T01:44:09.932Z,0.31
2023-02-26T01:49:32.784Z,0.28
2023-02-26T01:54:54.600Z,0.34
2023-02-26T02:00:17.355Z,0.16
2023-02-26T02:05:54.893Z,0.34
2023-02-26T02:11:17.928Z,0.30
2023-02-26T02:16:55.047Z,0.36
2023-02-26T02:22:38.766Z,0.36
2023-02-26T02:28:30.230Z,0.17
2023-02-26T02:34:07.858Z,0.26
2023-02-26T02:39:35.947Z,0.24
2023-02-26T02:45:08.269Z,0.14
2023-02-26T02:50:42.427Z,0.30
2023-02-26T02:56:18.076Z,0.28
2023-02-26T03:01:42.755Z,0.27
2023-02-26T03:07:05.249Z,0.21
2023-02-26T03:12:32.123Z,0.07
2023-02-26T03:18:10.365Z,0.27
2023-02-26T03:23:43.027Z,0.19
2023-02-26T03:29:28.685Z,0.29
2023-02-26T03:34:58.906Z,0.14
2023-02-26T03:40:47.287Z,0.13
2023-02-26T03:46:23.046Z,0.26
2023-02-26T03:51:48.835Z,0.07
2023-02-26T03:57:31.994Z,0.08
2023-02-26T04:03:37.546Z,0.13
2023-02-26T04:09:02.341Z,-0.01
2023-02-26T04:14:27.080Z,0.06
2023-02-26T04:19:49.566Z,0.05
2023-02-26T04:25:14.882Z,0.08
2023-02-26T04:30:40.431Z,0.04
2023-02-26T04:36:08.445Z,0.13
2023-02-26T04:41:32.508Z,0.22
2023-02-26T04:46:55.483Z,0.21
2023-02-26T04:52:18.647Z,0.10
2023-02-26T04:57:40.880Z,0.06
2023-02-26T05:03:03.399Z,0.10
2023-02-26T05:08:25.898Z,0.10
2023-02-26T05:13:52.284Z,-0.06
2023-02-26T05:19:15.015Z,0.09
2023-02-26T05:24:41.767Z,0.02
2023-02-26T05:30:05.480Z,0.04
2023-02-26T05:35:29.582Z,0.15
2023-02-26T05:40:51.987Z,0.04
2023-02-26T05:46:15.213Z,0.04
2023-02-26T05:51:39.233Z,0.11
2023-02-26T05:57:01.919Z,0.10
2023-02-26T06:02:24.599Z,-0.05
2023-02-26T06:07:47.620Z,0.08
2023-02-26T06:13:11.576Z,0.05
2023-02-26T06:18:34.462Z,0.08
2023-02-26T06:23:56.660Z,0.05
2023-02-26T06:29:21.083Z,0.04
2023-02-26T06:34:43.435Z,0.01
2023-02-26T06:40:07.019Z,0.05
2023-02-26T06:45:29.289Z,-0.05
2023-02-26T06:50:51.803Z,-0.04
2023-02-26T06:56:15.197Z,0.02
2023-02-26T07:01:38.124Z,-0.08
2023-02-26T07:07:00.642Z,0.16
2023-02-26T07:12:23.909Z,0.09
2023-02-26T07:17:46.145Z,0.23
2023-02-26T07:23:08.602Z,0.14
2023-02-26T07:28:30.895Z,0.16
2023-02-26T07:33:55.087Z,0.21
2023-02-26T07:39:17.282Z,0.21
2023-02-26T07:44:39.623Z,0.28
2023-02-26T07:50:02.274Z,0.23
2023-02-26T07:55:25.052Z,0.30
2023-02-26T08:00:47.321Z,0.26
2023-02-26T08:06:10.850Z,0.30
2023-02-26T08:11:40.215Z,0.37
2023-02-26T08:17:02.476Z,0.47
2023-02-26T08:22:24.495Z,0.54
2023-02-26T08:27:46.768Z,0.59
2023-02-26T08:33:08.808Z,0.62
2023-02-26T08:38:32.108Z,0.62
2023-02-26T08:43:54.772Z,0.80
2023-02-26T08:49:20.430Z,0.70
2023-02-26T08:54:43.058Z,0.74
2023-02-26T09:00:12.736Z,0.68
2023-02-26T09:05:37.010Z,0.80
2023-02-26T09:11:06.823Z,0.76
2023-02-26T09:16:31.229Z,0.94
2023-02-26T09:21:57.337Z,1.05
2023-02-26T09:27:20.420Z,0.94
2023-02-26T09:32:43.132Z,1.07
2023-02-26T09:38:05.623Z,1.12
2023-02-26T09:43:52.818Z,1.19
2023-02-26T09:49:28.331Z,1.22
2023-02-26T09:55:12.986Z,1.28
2023-02-26T10:01:00.889Z,1.32
2023-02-26T10:06:29.287Z,1.63
2023-02-26T10:12:02.741Z,1.63
2023-02-26T10:17:41.705Z,1.80
2023-02-26T10:23:10.151Z,1.80
2023-02-26T10:28:48.382Z,2.16
2023-02-26T10:34:50.726Z,2.06
2023-02-26T10:40:47.509Z,2.42
2023-02-26T10:46:24.005Z,2.42
2023-02-26T10:51:49.555Z,2.33
2023-02-26T10:57:26.460Z,2.38
2023-02-26T11:02:54.994Z,2.64
2023-02-26T11:08:24.549Z,2.56
2023-02-26T11:13:48.514Z,2.33
2023-02-26T11:19:16.468Z,2.07
2023-02-26T11:24:42.420Z,2.25
2023-02-26T11:30:19.303Z,1.97
2023-02-26T11:35:42.256Z,1.93
2023-02-26T11:41:07.101Z,1.86
2023-02-26T11:46:31.716Z,2.10
2023-02-26T11:52:16.341Z,1.97
2023-02-26T11:57:43.989Z,1.96
2023-02-26T12:03:16.235Z,1.90
2023-02-26T12:08:42.882Z,1.87
2023-02-26T12:14:14.627Z,1.95
2023-02-26T12:19:50.911Z,1.84
2023-02-26T12:25:22.725Z,1.97
2023-02-26T12:31:19.414Z,1.96
2023-02-26T12:37:21.905Z,2.02
2023-02-26T12:50:27.769Z,1.81
2023-02-26T12:56:11.810Z,1.71
2023-02-26T13:02:01.420Z,1.62
2023-02-26T13:07:59.401Z,1.60
2023-02-26T13:13:33.562Z,1.68
2023-02-26T13:19:26.115Z,1.44
2023-02-26T13:24:56.223Z,1.59
2023-02-26T13:30:30.929Z,1.52
2023-02-26T13:35:58.264Z,1.50
2023-02-26T13:41:26.944Z,1.43
2023-02-26T13:47:08.049Z,1.30
2023-02-26T13:52:32.995Z,1.32
2023-02-26T13:57:55.782Z,1.20
2023-02-26T14:03:17.780Z,1.33
2023-02-26T14:08:46.157Z,1.22
2023-02-26T14:14:19.959Z,1.28
2023-02-26T14:20:11.727Z,1.19
2023-02-26T14:25:38.732Z,0.98
2023-02-26T14:31:14.721Z,1.11
2023-02-26T14:36:53.475Z,1.01
2023-02-26T14:42:22.189Z,1.12
2023-02-26T14:47:47.233Z,1.05
2023-02-26T14:53:24.900Z,1.07
2023-02-26T14:58:55.409Z,1.00
2023-02-26T15:04:36.135Z,1.09
2023-02-26T15:10:30.273Z,1.08
2023-02-26T15:16:06.479Z,1.04
2023-02-26T15:21:47.359Z,1.03
2023-02-26T15:27:15.971Z,1.04
2023-02-26T15:32:41.876Z,0.98
2023-02-26T15:38:04.935Z,0.68
2023-02-26T15:43:36.716Z,0.99
2023-02-26T15:49:10.994Z,0.71
2023-02-26T15:55:00.640Z,0.93
2023-02-26T16:00:26.534Z,0.91
2023-02-26T16:05:50.052Z,0.84
2023-02-26T16:11:14.641Z,0.74
2023-02-26T16:16:44.782Z,0.75
2023-02-26T16:22:18.145Z,0.71
2023-02-26T16:27:42.241Z,0.58
2023-02-26T16:33:08.509Z,0.73
2023-02-26T16:38:45.009Z,0.58
2023-02-26T16:44:44.665Z,0.68
2023-02-26T16:50:19.620Z,0.52
2023-02-26T16:55:43.983Z,0.50
2023-02-26T17:01:16.137Z,0.49
2023-02-26T17:06:42.869Z,0.65
2023-02-26T17:12:13.423Z,0.74
2023-02-26T17:17:38.481Z,0.53
2023-02-26T17:23:09.619Z,0.55
2023-02-26T17:28:43.828Z,0.76
2023-02-26T17:34:12.169Z,0.67
2023-02-26T17:39:35.272Z,0.59
2023-02-26T17:44:58.000Z,0.62
2023-02-26T17:50:43.571Z,0.83
2023-02-26T17:56:07.455Z,0.82
2023-02-26T18:01:33.049Z,0.76
2023-02-26T18:06:55.996Z,0.81
2023-02-26T18:12:23.049Z,0.64
2023-02-26T18:17:51.851Z,0.64
2023-02-26T18:23:15.378Z,0.53
2023-02-26T18:28:37.805Z,0.63
2023-02-26T18:34:00.798Z,0.60
2023-02-26T18:39:31.829Z,0.57
2023-02-26T18:45:00.615Z,0.45
2023-02-26T18:50:23.971Z,0.51
2023-02-26T18:55:46.267Z,0.43
2023-02-26T19:01:08.511Z,0.26
2023-02-26T19:06:30.831Z,-0.02
2023-02-26T19:11:52.879Z,-0.15
2023-02-26T19:17:18.338Z,-0.25
2023-02-26T19:22:40.759Z,-0.25
2023-02-26T19:28:03.360Z,-0.24
2023-02-26T19:33:25.940Z,-0.21
2023-02-26T19:38:50.044Z,-0.42
2023-02-26T19:44:12.326Z,-0.49
2023-02-26T19:49:34.735Z,-0.56
2023-02-26T19:54:57.377Z,-0.57
2023-02-26T20:00:19.583Z,-0.53
2023-02-26T20:05:41.907Z,-0.60
2023-02-26T20:11:04.195Z,-0.63
2023-02-26T20:16:27.177Z,-0.92
2023-02-26T20:21:50.303Z,-0.94
2023-02-26T20:27:12.913Z,-1.26
2023-02-26T20:32:35.538Z,-1.35
2023-02-26T20:37:58.080Z,-1.23
2023-02-26T20:43:20.214Z,-1.42
2023-02-26T20:48:44.318Z,-1.51
2023-02-26T20:54:13.544Z,-1.23
2023-02-26T20:59:36.136Z,-1.27
2023-02-26T21:05:01.105Z,-1.48
2023-02-26T21:10:23.220Z,-1.46
2023-02-26T21:15:45.476Z,-1.42
2023-02-26T21:21:08.104Z,-1.46
2023-02-26T21:26:30.064Z,-1.22
2023-02-26T21:31:54.128Z,-1.40
2023-02-26T21:37:16.797Z,-1.40
2023-02-26T21:42:38.926Z,-1.36
2023-02-26T21:48:01.775Z,-1.45
2023-02-26T21:53:27.753Z,-1.32
2023-02-26T21:58:49.692Z,-1.55
2023-02-26T22:04:11.801Z,-1.32
2023-02-26T22:09:34.233Z,-1.35
2023-02-26T22:14:58.635Z,-1.39
2023-02-26T22:20:21.220Z,-1.40
2023-02-26T22:25:43.788Z,-1.33
2023-02-26T22:31:06.198Z,-1.53
2023-02-26T22:36:30.678Z,-1.35
2023-02-26T22:41:52.878Z,-1.38
2023-02-26T22:47:15.210Z,-1.47
2023-02-26T22:52:37.609Z,-1.32
2023-02-26T22:58:02.536Z,-1.58
2023-02-26T23:03:25.226Z,-1.55
2023-02-26T23:08:47.584Z,-1.36
2023-02-26T23:14:10.187Z,-1.65
2023-02-26T23:19:32.390Z,-1.51
2023-02-26T23:24:55.108Z,-1.53
2023-02-26T23:30:18.684Z,-1.62
2023-02-26T23:35:41.395Z,-1.73
2023-02-26T23:41:04.045Z,-1.67
2023-02-26T23:46:25.840Z,-1.68
2023-02-26T23:51:47.997Z,-1.71
2023-02-26T23:57:10.576Z,-1.70
